createdAt,value
2023-03-02T07:49:52.171Z,-1.71
2023-03-02T08:07:49.082Z,-1.58
2023-03-02T08:10:51.562Z,-1.60
2023-03-02T08:13:54.145Z,-1.41
2023-03-02T08:16:56.607Z,-1.27
2023-03-02T08:19:59.123Z,-1.18
2023-03-02T08:23:02.922Z,-1.12
2023-03-02T08:26:05.749Z,-1.19
2023-03-02T08:29:08.562Z,-1.16
2023-03-02T08:32:11.190Z,-1.17
2023-03-02T08:35:13.803Z,-1.05
2023-03-02T08:38:17.601Z,-0.94
2023-03-02T08:41:21.934Z,-0.95
2023-03-02T08:44:24.512Z,-0.91
2023-03-02T08:47:27.023Z,-0.82
2023-03-02T08:50:29.518Z,-0.76
2023-03-02T08:53:35.073Z,-0.58
2023-03-02T08:56:39.543Z,-0.44
2023-03-02T08:59:42.239Z,-0.48
2023-03-02T09:02:44.705Z,-0.41
2023-03-02T09:05:47.299Z,-0.30
2023-03-02T09:08:51.822Z,-0.30
2023-03-02T09:11:54.276Z,-0.25
2023-03-02T09:14:56.742Z,-0.25
2023-03-02T09:17:59.196Z,-0.38
2023-03-02T09:21:01.908Z,-0.26
2023-03-02T09:24:06.236Z,-0.24
2023-03-02T09:27:08.709Z,-0.10
2023-03-02T09:30:12.885Z,-0.14
2023-03-02T09:33:15.515Z,-0.24
2023-03-02T09:36:22.490Z,-0.14
2023-03-02T09:39:26.371Z,-0.03
2023-03-02T09:42:50.390Z,0.23
2023-03-02T09:46:03.927Z,0.45
2023-03-02T09:49:17.913Z,0.42
2023-03-02T09:52:31.573Z,0.49
2023-03-02T09:55:37.830Z,0.51
2023-03-02T09:58:42.488Z,0.67
2023-03-02T10:01:48.921Z,0.79
2023-03-02T10:04:54.419Z,0.66
2023-03-02T10:07:59.289Z,0.68
2023-03-02T10:11:12.911Z,0.51
2023-03-02T10:14:21.474Z,0.59
2023-03-02T10:17:44.367Z,0.74
2023-03-02T10:20:53.606Z,0.91
2023-03-02T10:24:00.658Z,0.93
2023-03-02T10:27:17.034Z,1.02
2023-03-02T10:30:27.774Z,0.65
2023-03-02T10:33:33.626Z,0.27
2023-03-02T10:36:39.911Z,0.40
2023-03-02T10:39:42.501Z,0.84
2023-03-02T10:42:46.472Z,0.94
2023-03-02T10:46:00.291Z,0.94
2023-03-02T10:49:02.945Z,1.00
2023-03-02T10:52:07.530Z,1.07
2023-03-02T10:55:14.925Z,0.88
2023-03-02T10:58:25.894Z,1.15
2023-03-02T11:01:28.503Z,0.65
2023-03-02T11:04:31.476Z,0.70
2023-03-02T11:07:33.985Z,0.85
2023-03-02T11:10:38.956Z,0.98
2023-03-02T11:13:42.801Z,0.90
2023-03-02T11:16:45.478Z,0.75
2023-03-02T11:19:48.173Z,0.94
2023-03-02T11:23:00.116Z,1.15
2023-03-02T11:26:07.978Z,1.47
2023-03-02T11:29:22.576Z,1.59
2023-03-02T11:32:32.166Z,1.46
2023-03-02T11:35:39.914Z,1.32
2023-03-02T11:38:48.396Z,1.53
2023-03-02T11:41:52.206Z,1.24
2023-03-02T11:44:56.131Z,1.19
2023-03-02T11:48:06.069Z,1.08
2023-03-02T11:51:14.490Z,1.09
2023-03-02T11:54:34.673Z,0.84
2023-03-02T11:57:44.099Z,1.13
2023-03-02T12:00:49.826Z,1.38
2023-03-02T12:03:52.914Z,1.28
2023-03-02T12:06:55.693Z,1.20
2023-03-02T12:10:02.837Z,1.11
2023-03-02T12:13:15.343Z,1.11
2023-03-02T12:16:23.933Z,1.16
2023-03-02T12:19:28.848Z,1.17
2023-03-02T12:22:32.840Z,1.02
2023-03-02T12:25:51.584Z,0.80
2023-03-02T12:29:00.859Z,0.89
2023-03-02T12:32:13.556Z,0.99
2023-03-02T12:35:21.008Z,1.03
2023-03-02T12:38:31.996Z,0.87
2023-03-02T12:41:48.252Z,0.92
2023-03-02T12:44:59.572Z,0.86
2023-03-02T12:48:06.811Z,0.77
2023-03-02T12:51:18.248Z,0.70
2023-03-02T12:54:22.845Z,0.89
2023-03-02T12:57:25.326Z,0.90
2023-03-02T13:00:31.228Z,1.02
2023-03-02T13:03:35.147Z,0.99
2023-03-02T13:06:39.867Z,1.05
2023-03-02T13:09:51.054Z,1.21
2023-03-02T13:12:59.627Z,1.19
2023-03-02T13:16:04.325Z,1.03
2023-03-02T13:19:15.214Z,1.06
2023-03-02T13:22:18.382Z,0.96
2023-03-02T13:25:27.002Z,1.02
2023-03-02T13:28:31.611Z,1.07
2023-03-02T13:31:35.432Z,1.04
2023-03-02T13:34:39.413Z,1.09
2023-03-02T13:37:44.736Z,1.21
2023-03-02T13:40:48.626Z,1.21
2023-03-02T13:43:51.519Z,1.25
2023-03-02T13:46:54.105Z,1.23
2023-03-02T13:50:07.927Z,1.32
2023-03-02T13:53:12.370Z,1.46
2023-03-02T13:56:18.959Z,1.49
2023-03-02T13:59:23.222Z,1.47
2023-03-02T14:02:28.003Z,1.44
2023-03-02T14:05:33.804Z,1.39
2023-03-02T14:08:36.453Z,1.30
2023-03-02T14:11:43.144Z,1.19
2023-03-02T14:14:45.783Z,1.22
2023-03-02T14:17:49.161Z,1.21
2023-03-02T14:20:53.134Z,1.21
2023-03-02T14:23:56.035Z,1.21
2023-03-02T14:26:58.966Z,1.16
2023-03-02T14:30:01.990Z,1.22
2023-03-02T14:33:04.528Z,1.25
2023-03-02T14:36:14.127Z,1.24
2023-03-02T14:39:22.721Z,1.04
2023-03-02T14:42:25.261Z,0.97
2023-03-02T14:45:29.831Z,0.91
2023-03-02T14:48:33.328Z,0.78
2023-03-02T14:51:40.280Z,1.06
2023-03-02T15:16:07.221Z,0.42
2023-03-02T15:56:42.286Z,0.09
2023-03-02T15:59:46.297Z,0.13
2023-03-02T16:02:49.423Z,0.16
